Time;durP1;ratioP1;P1;durP2;ratioP2;P2;SDS_P1;SDS_P2;PMS_P1;PMS_P2;Temp;Humidity;BMP_temperature;BMP_pressure;BME280_temperature;BME280_humidity;BME280_pressure;Samples;Min_cycle;Max_cycle;Signal;HPM_P1;HPM_P2
2023/06/08 00:02:24;;;;;;;12.52;7.45;;;13.60;99.90;;;;;;5034744;28;20490;-74
2023/06/08 00:04:52;;;;;;;15.65;7.25;;;13.60;99.90;;;;;;5029884;28;20129;-74
2023/06/08 00:07:19;;;;;;;10.75;6.55;;;13.50;99.90;;;;;;5032040;28;20056;-74
2023/06/08 00:09:45;;;;;;;13.45;6.93;;;13.40;99.90;;;;;;5031524;28;20041;-74
2023/06/08 00:12:11;;;;;;;15.40;6.55;;;13.50;99.90;;;;;;5058007;28;20037;-74
2023/06/08 00:14:38;;;;;;;15.88;7.15;;;13.40;99.90;;;;;;5043101;28;20088;-74
2023/06/08 00:17:04;;;;;;;11.88;6.65;;;13.40;99.90;;;;;;5043197;28;20554;-74
2023/06/08 00:19:31;;;;;;;12.18;6.78;;;13.50;99.90;;;;;;5035796;28;20049;-73
2023/06/08 00:21:59;;;;;;;13.75;7.05;;;13.40;99.90;;;;;;5032635;28;20033;-74
2023/06/08 00:24:25;;;;;;;15.63;7.28;;;13.30;99.90;;;;;;5029480;28;20501;-74
2023/06/08 00:26:50;;;;;;;11.82;7.22;;;13.20;99.90;;;;;;5034344;28;20088;-74
2023/06/08 00:29:16;;;;;;;11.45;7.70;;;;;;;;;;5043354;28;20057;-74
2023/06/08 00:31:42;;;;;;;12.48;7.45;;;;;;;;;;5033953;28;20408;-74
2023/06/08 00:34:08;;;;;;;11.63;8.73;;;;;;;;;;5051060;28;20109;-73
2023/06/08 00:36:35;;;;;;;18.10;9.13;;;;;;;;;;5048141;28;20103;-74
2023/06/08 00:39:01;;;;;;;14.02;9.20;;;;;;;;;;5031467;28;20065;-74
2023/06/08 00:41:27;;;;;;;16.75;9.23;;;;;;;;;;5043296;28;20049;-74
2023/06/08 00:43:53;;;;;;;20.77;9.75;;;;;;;;;;5037115;28;20042;-74
2023/06/08 00:46:19;;;;;;;16.05;9.45;;;;;;;;;;5036303;28;20548;-74
2023/06/08 00:48:45;;;;;;;14.98;9.73;;;;;;;;;;5038651;28;20132;-73
2023/06/08 00:51:12;;;;;;;14.25;8.95;;;;;;;;;;5038919;28;20131;-74
2023/06/08 00:53:38;;;;;;;16.48;9.73;;;;;;;;;;5037484;28;20033;-74
2023/06/08 00:56:05;;;;;;;15.13;8.85;;;;;;;;;;5041060;28;20119;-74
2023/06/08 00:58:33;;;;;;;14.05;7.88;;;;;;;;;;5039033;28;20041;-73
2023/06/08 01:00:59;;;;;;;12.63;7.72;;;;;;;;;;5050925;28;20048;-74
2023/06/08 01:03:33;;;;;;;15.13;7.15;;;;;;;;;;5048573;28;20162;-73
2023/06/08 01:06:00;;;;;;;14.00;7.20;;;;;;;;;;5049321;28;20162;-74
2023/06/08 01:08:32;;;;;;;14.05;7.22;;;;;;;;;;5040224;28;20481;-73
2023/06/08 01:11:14;;;;;;;14.57;6.97;;;;;;;;;;5053240;28;20500;-74
2023/06/08 01:13:46;;;;;;;11.23;6.72;;;;;;;;;;5040528;28;20072;-74
2023/06/08 01:16:14;;;;;;;12.65;6.65;;;;;;;;;;5036959;28;20068;-74
2023/06/08 01:18:41;;;;;;;11.68;7.00;;;13.10;99.90;;;;;;5040585;28;20069;-73
2023/06/08 01:21:28;;;;;;;13.15;6.85;;;12.90;99.90;;;;;;5040876;28;20555;-73
2023/06/08 01:24:03;;;;;;;8.65;6.38;;;12.80;99.90;;;;;;5052369;28;20036;-74
2023/06/08 01:26:31;;;;;;;12.35;6.35;;;12.80;99.90;;;;;;5047765;28;20098;-74
2023/06/08 01:28:57;;;;;;;14.15;6.13;;;12.80;99.90;;;;;;5037962;28;20049;-73
2023/06/08 01:31:22;;;;;;;11.23;6.53;;;12.80;99.90;;;;;;5051963;28;20045;-74
2023/06/08 01:33:49;;;;;;;11.63;6.53;;;12.70;99.90;;;;;;5052915;28;20067;-74
2023/06/08 01:36:25;;;;;;;12.23;7.15;;;12.70;99.90;;;;;;5050256;28;20130;-74
2023/06/08 01:39:17;;;;;;;14.25;7.70;;;12.70;99.90;;;;;;5048129;28;20056;-74
2023/06/08 01:41:47;;;;;;;14.23;7.63;;;12.80;99.90;;;;;;5038761;28;20050;-74
2023/06/08 01:44:15;;;;;;;14.50;6.72;;;12.70;99.90;;;;;;5043620;28;20041;-74
2023/06/08 01:46:48;;;;;;;11.20;6.60;;;12.90;99.90;;;;;;5039306;28;20098;-74
2023/06/08 01:49:15;;;;;;;10.63;6.30;;;12.90;99.90;;;;;;5044244;28;20080;-74
2023/06/08 01:51:42;;;;;;;12.38;6.97;;;12.80;99.90;;;;;;5046540;28;20037;-74
2023/06/08 01:54:07;;;;;;;13.13;6.78;;;12.80;99.90;;;;;;5044636;28;20048;-74
2023/06/08 01:56:35;;;;;;;13.70;7.50;;;12.80;99.90;;;;;;5051536;28;20045;-74
2023/06/08 01:59:01;;;;;;;11.18;6.72;;;12.80;99.90;;;;;;5046364;28;20040;-74
2023/06/08 02:01:26;;;;;;;12.82;7.15;;;12.90;99.90;;;;;;5046743;28;20448;-74
2023/06/08 02:03:52;;;;;;;14.18;7.15;;;12.70;99.90;;;;;;5055883;28;20044;-74
2023/06/08 02:06:18;;;;;;;12.23;7.85;;;12.70;99.90;;;;;;5072241;28;20044;-74
2023/06/08 02:08:44;;;;;;;13.60;7.28;;;12.70;99.90;;;;;;5039151;28;20132;-74
2023/06/08 02:11:10;;;;;;;15.52;7.80;;;12.60;99.90;;;;;;5041010;28;20107;-74
2023/06/08 02:13:40;;;;;;;13.98;7.05;;;12.60;99.90;;;;;;5043468;28;20135;-74
2023/06/08 02:16:06;;;;;;;11.57;7.25;;;12.60;99.90;;;;;;5033771;28;20042;-74
2023/06/08 02:18:34;;;;;;;14.50;8.27;;;12.60;99.90;;;;;;5041150;28;20036;-74
2023/06/08 02:21:02;;;;;;;12.93;8.00;;;12.50;99.90;;;;;;5045948;28;20049;-74
2023/06/08 02:23:28;;;;;;;13.80;7.95;;;12.50;99.90;;;;;;5031758;28;20041;-74
2023/06/08 02:25:53;;;;;;;13.98;7.68;;;12.50;99.90;;;;;;5034189;28;20049;-74
2023/06/08 02:28:20;;;;;;;13.40;7.93;;;12.50;99.90;;;;;;5039838;28;20053;-75
2023/06/08 02:30:46;;;;;;;12.93;7.40;;;12.50;99.90;;;;;;5031375;28;20037;-74
2023/06/08 02:33:13;;;;;;;13.07;7.55;;;12.40;99.90;;;;;;5031403;28;20118;-74
2023/06/08 02:35:39;;;;;;;11.77;6.95;;;12.60;99.90;;;;;;5048948;28;20412;-74
2023/06/08 02:38:04;;;;;;;16.67;7.78;;;12.60;99.90;;;;;;5043033;28;20033;-74
2023/06/08 02:40:30;;;;;;;15.55;7.53;;;12.50;99.90;;;;;;5035167;28;20138;-74
2023/06/08 02:42:56;;;;;;;12.00;7.00;;;12.50;99.90;;;;;;5030140;28;20045;-74
2023/06/08 02:45:22;;;;;;;10.35;7.05;;;12.70;99.90;;;;;;5046274;28;20037;-74
2023/06/08 02:47:47;;;;;;;12.32;6.63;;;12.70;99.90;;;;;;5046468;28;20056;-74
2023/06/08 02:50:13;;;;;;;11.45;6.88;;;12.70;99.90;;;;;;5048682;28;20047;-74
2023/06/08 02:52:39;;;;;;;14.60;7.60;;;12.60;99.90;;;;;;5051241;28;20721;-75
2023/06/08 02:55:05;;;;;;;11.85;7.40;;;12.70;99.90;;;;;;5043982;28;20052;-74
2023/06/08 02:57:32;;;;;;;14.95;7.50;;;12.70;99.90;;;;;;5037783;28;20131;-74
2023/06/08 02:59:58;;;;;;;14.52;6.80;;;12.70;99.90;;;;;;5033398;28;20091;-74
2023/06/08 03:02:24;;;;;;;12.25;7.43;;;12.70;99.90;;;;;;5046308;28;20066;-74
2023/06/08 03:04:52;;;;;;;11.05;6.53;;;12.70;99.90;;;;;;5037473;28;20124;-74
2023/06/08 03:07:18;;;;;;;12.45;7.45;;;12.60;99.90;;;;;;5048977;28;20045;-73
2023/06/08 03:09:44;;;;;;;11.10;6.85;;;12.70;99.90;;;;;;5033179;28;20072;-74
2023/06/08 03:12:12;;;;;;;11.45;6.72;;;12.70;99.90;;;;;;5049430;28;20130;-74
2023/06/08 03:14:40;;;;;;;10.73;7.18;;;12.70;99.90;;;;;;5043384;28;20051;-74
2023/06/08 03:17:07;;;;;;;13.40;6.88;;;12.70;99.90;;;;;;5037582;28;20473;-74
2023/06/08 03:19:32;;;;;;;12.60;6.97;;;12.70;99.90;;;;;;5050422;28;20064;-74
2023/06/08 03:22:04;;;;;;;11.65;7.07;;;12.90;99.90;;;;;;5037492;28;20073;-74
2023/06/08 03:24:32;;;;;;;14.10;6.80;;;12.90;99.90;;;;;;5037464;28;20044;-74
2023/06/08 03:26:59;;;;;;;12.18;6.80;;;12.90;99.90;;;;;;5031106;28;20132;-75
2023/06/08 03:29:25;;;;;;;12.63;6.88;;;13.00;99.90;;;;;;5031345;28;20037;-73
2023/06/08 03:31:51;;;;;;;11.65;7.60;;;12.90;99.90;;;;;;5032994;28;20094;-73
2023/06/08 03:34:17;;;;;;;12.95;8.30;;;13.00;99.90;;;;;;5041502;28;20053;-75
2023/06/08 03:36:44;;;;;;;13.75;9.43;;;12.90;99.90;;;;;;5034636;28;20048;-74
2023/06/08 03:39:10;;;;;;;14.85;8.43;;;13.00;99.90;;;;;;5049798;28;20053;-74
2023/06/08 03:41:35;;;;;;;15.77;8.40;;;13.00;99.90;;;;;;5041335;28;20384;-74
2023/06/08 03:44:01;;;;;;;16.73;8.35;;;12.90;99.90;;;;;;5035921;28;20044;-74
2023/06/08 03:46:27;;;;;;;15.43;7.70;;;12.90;99.90;;;;;;5041516;28;20091;-74
2023/06/08 03:48:53;;;;;;;13.23;7.57;;;12.90;99.90;;;;;;5044115;28;20144;-74
2023/06/08 03:51:22;;;;;;;11.68;7.75;;;12.80;99.90;;;;;;5037999;28;20053;-75
2023/06/08 03:53:51;;;;;;;13.25;7.32;;;12.90;99.90;;;;;;5033477;28;20575;-73
2023/06/08 03:56:17;;;;;;;15.45;7.20;;;12.90;99.90;;;;;;5040706;28;20046;-74
2023/06/08 03:58:44;;;;;;;13.55;7.30;;;13.00;99.90;;;;;;5035642;28;20073;-74
2023/06/08 04:01:11;;;;;;;13.02;7.38;;;13.00;99.90;;;;;;5041427;28;20052;-74
2023/06/08 04:03:37;;;;;;;11.65;7.55;;;12.90;99.90;;;;;;5035736;28;20062;-74
2023/06/08 04:06:05;;;;;;;11.40;7.00;;;12.90;99.90;;;;;;5046730;28;20432;-73
2023/06/08 04:08:32;;;;;;;15.00;7.10;;;12.90;99.90;;;;;;5042260;28;20051;-73
2023/06/08 04:11:00;;;;;;;11.77;6.70;;;12.90;99.90;;;;;;5045917;28;20048;-74
2023/06/08 04:13:26;;;;;;;13.63;6.78;;;12.90;99.90;;;;;;5030379;28;20121;-73
2023/06/08 04:15:52;;;;;;;16.20;7.25;;;13.00;99.90;;;;;;5032874;28;20127;-74
2023/06/08 04:18:18;;;;;;;10.07;6.65;;;13.10;99.90;;;;;;5054713;28;20041;-75
2023/06/08 04:20:45;;;;;;;11.80;6.15;;;13.00;99.90;;;;;;5046114;28;20107;-74
2023/06/08 04:23:11;;;;;;;10.75;6.40;;;13.00;99.90;;;;;;5046322;28;20072;-74
2023/06/08 04:25:37;;;;;;;13.70;7.22;;;13.10;99.90;;;;;;5038930;28;20112;-74
2023/06/08 04:28:03;;;;;;;10.88;6.40;;;13.00;99.90;;;;;;5052191;28;20136;-74
2023/06/08 04:30:29;;;;;;;13.25;6.10;;;13.10;99.90;;;;;;5050909;28;20036;-74
2023/06/08 04:32:55;;;;;;;12.57;6.57;;;13.10;99.90;;;;;;5039700;28;20044;-75
2023/06/08 04:35:21;;;;;;;11.60;6.40;;;13.10;99.90;;;;;;5048096;28;20065;-74
2023/06/08 04:37:47;;;;;;;14.30;7.15;;;13.10;99.90;;;;;;5048675;28;20342;-74
2023/06/08 04:40:13;;;;;;;10.80;6.20;;;13.10;99.90;;;;;;5047869;28;20036;-74
2023/06/08 04:42:40;;;;;;;11.18;6.15;;;13.20;99.90;;;;;;5043060;28;20037;-74
2023/06/08 04:45:08;;;;;;;11.23;5.40;;;13.20;99.90;;;;;;5052867;28;20052;-74
2023/06/08 04:47:37;;;;;;;20.60;6.65;;;13.30;99.90;;;;;;5038577;28;20122;-74
2023/06/08 04:50:07;;;;;;;11.20;6.38;;;13.40;99.90;;;;;;5047884;28;20087;-74
2023/06/08 04:52:40;;;;;;;16.05;6.55;;;13.40;99.90;;;;;;5041497;28;20436;-74
2023/06/08 04:55:06;;;;;;;14.30;6.45;;;;;;;;;;5049139;28;20045;-73
2023/06/08 04:57:32;;;;;;;12.75;6.07;;;;;;;;;;5049931;28;20552;-74
2023/06/08 04:59:59;;;;;;;9.85;5.47;;;;;;;;;;5047681;28;20101;-74
2023/06/08 05:02:26;;;;;;;11.80;6.00;;;;;;;;;;5040560;28;20045;-74
2023/06/08 05:04:52;;;;;;;15.45;6.25;;;;;;;;;;5040174;28;20048;-74
2023/06/08 05:07:18;;;;;;;11.30;5.57;;;;;;;;;;5043323;28;20060;-74
2023/06/08 05:09:43;;;;;;;13.52;5.90;;;;;;;;;;5044083;28;20045;-74
2023/06/08 05:12:10;;;;;;;12.05;6.03;;;;;;;;;;5040450;28;20501;-74
2023/06/08 05:14:36;;;;;;;13.85;7.20;;;;;;;;;;5049328;28;20049;-74
2023/06/08 05:17:02;;;;;;;15.65;6.35;;;;;;;;;;5043601;28;20048;-73
2023/06/08 05:19:28;;;;;;;15.57;6.45;;;;;;;;;;5041073;28;20038;-74
2023/06/08 05:21:54;;;;;;;12.88;5.88;;;;;;;;;;5035118;28;20073;-73
2023/06/08 05:24:21;;;;;;;11.73;5.65;;;;;;;;;;5049612;28;20114;-73
2023/06/08 05:26:47;;;;;;;12.57;5.63;;;;;;;;;;5033810;28;20154;-74
2023/06/08 05:29:13;;;;;;;12.02;6.20;;;;;;;;;;5045443;28;20515;-74
2023/06/08 05:31:39;;;;;;;13.80;6.00;;;;;;;;;;5041636;28;20041;-73
2023/06/08 05:34:05;;;;;;;11.20;6.22;;;;;;;;;;5049321;28;20506;-74
2023/06/08 05:36:31;;;;;;;14.88;6.22;;;;;;;;;;5031496;28;20485;-73
2023/06/08 05:39:02;;;;;;;13.73;6.47;;;;;;;;;;5049033;28;20171;-74
2023/06/08 05:41:28;;;;;;;12.82;6.35;;;;;;;;;;5042417;28;20041;-73
2023/06/08 05:43:54;;;;;;;14.52;5.88;;;;;;;;;;5035187;28;20049;-73
2023/06/08 05:46:20;;;;;;;14.73;6.55;;;;;;;;;;5034252;28;20076;-73
2023/06/08 05:48:46;;;;;;;17.13;5.93;;;;;;;;;;5045262;28;20044;-73
2023/06/08 05:51:12;;;;;;;13.90;6.40;;;;;;;;;;5049604;28;20041;-73
2023/06/08 05:53:39;;;;;;;13.88;6.45;;;;;;;;;;5043924;28;20048;-73
2023/06/08 05:56:05;;;;;;;13.45;6.50;;;;;;;;;;5044211;28;20045;-73
2023/06/08 05:58:30;;;;;;;11.57;6.13;;;14.20;99.90;;;;;;5046106;28;20043;-73
2023/06/08 06:00:58;;;;;;;16.15;6.93;;;14.40;99.90;;;;;;5047336;28;20537;-74
2023/06/08 06:03:24;;;;;;;11.68;5.75;;;14.40;99.90;;;;;;5045186;28;20047;-74
2023/06/08 06:05:50;;;;;;;14.18;5.75;;;14.50;99.90;;;;;;5041510;28;20503;-73
2023/06/08 06:08:16;;;;;;;10.48;6.00;;;14.50;99.90;;;;;;5048445;28;20033;-73
2023/06/08 06:10:41;;;;;;;11.35;6.03;;;14.60;99.90;;;;;;5050253;28;20142;-74
2023/06/08 06:13:07;;;;;;;14.90;7.10;;;14.70;99.90;;;;;;5049968;28;20037;-73
2023/06/08 06:15:33;;;;;;;15.05;6.63;;;14.80;99.90;;;;;;5048127;28;20958;-73
2023/06/08 06:17:59;;;;;;;13.68;5.50;;;14.80;99.90;;;;;;5037036;28;20045;-74
2023/06/08 06:20:27;;;;;;;12.20;6.20;;;14.70;99.90;;;;;;5032648;28;20038;-73
2023/06/08 06:22:53;;;;;;;12.73;6.00;;;14.60;99.90;;;;;;5032885;28;20053;-74
2023/06/08 06:25:21;;;;;;;11.57;5.82;;;14.90;99.90;;;;;;5043057;28;20396;-73
2023/06/08 06:27:47;;;;;;;11.25;6.63;;;14.80;99.90;;;;;;5049846;28;20045;-73
2023/06/08 06:30:13;;;;;;;12.93;6.15;;;14.80;99.90;;;;;;5041584;28;20496;-74
2023/06/08 06:32:38;;;;;;;10.95;5.80;;;14.70;99.90;;;;;;5038385;28;20111;-73
2023/06/08 06:35:04;;;;;;;16.35;5.82;;;14.70;99.90;;;;;;5032028;28;20049;-74
2023/06/08 06:37:34;;;;;;;11.02;6.30;;;14.80;99.90;;;;;;5032662;28;20099;-73
2023/06/08 06:40:01;;;;;;;14.13;7.00;;;15.00;99.90;;;;;;5041632;28;20060;-73
2023/06/08 06:42:27;;;;;;;14.40;6.60;;;15.10;99.90;;;;;;5036675;28;20044;-73
2023/06/08 06:44:52;;;;;;;16.30;6.50;;;15.10;99.90;;;;;;5044532;28;20045;-73
2023/06/08 06:47:18;;;;;;;16.00;5.82;;;15.10;99.90;;;;;;5045110;28;20106;-73
2023/06/08 06:49:43;;;;;;;12.10;6.00;;;15.00;99.90;;;;;;5046515;28;20114;-73
2023/06/08 06:52:09;;;;;;;15.40;6.00;;;15.00;99.90;;;;;;5038871;28;20045;-73
2023/06/08 06:54:35;;;;;;;17.45;6.72;;;15.10;99.90;;;;;;5029004;28;20067;-75
2023/06/08 06:57:00;;;;;;;9.85;5.57;;;15.10;99.90;;;;;;5037265;28;20029;-77
2023/06/08 06:59:28;;;;;;;14.48;6.13;;;15.00;99.90;;;;;;5043180;28;20067;-73
2023/06/08 07:01:54;;;;;;;11.57;5.78;;;15.00;99.90;;;;;;5037053;28;20037;-74
2023/06/08 07:04:19;;;;;;;11.80;5.43;;;14.90;99.90;;;;;;5037449;28;20041;-74
2023/06/08 07:06:47;;;;;;;11.18;5.40;;;14.90;99.90;;;;;;5033289;28;20111;-74
2023/06/08 07:09:13;;;;;;;12.32;5.65;;;14.90;99.90;;;;;;5043641;28;20119;-75
2023/06/08 07:11:39;;;;;;;17.60;5.85;;;15.00;99.90;;;;;;5037533;28;20120;-73
2023/06/08 07:14:05;;;;;;;16.25;6.20;;;15.00;99.90;;;;;;5045967;28;20049;-74
2023/06/08 07:16:30;;;;;;;12.68;5.80;;;15.00;99.90;;;;;;5044101;28;20038;-74
2023/06/08 07:18:56;;;;;;;12.60;5.82;;;15.00;99.90;;;;;;5043403;28;20056;-74
2023/06/08 07:21:23;;;;;;;8.82;5.57;;;15.00;99.90;;;;;;5039212;28;20040;-74
2023/06/08 07:23:50;;;;;;;12.65;5.68;;;15.10;99.90;;;;;;5046490;28;20057;-73
2023/06/08 07:26:16;;;;;;;16.30;6.18;;;15.00;99.90;;;;;;5049544;28;20049;-73
2023/06/08 07:28:41;;;;;;;13.35;5.63;;;15.10;99.90;;;;;;5041047;28;20038;-73
2023/06/08 07:31:07;;;;;;;12.88;6.07;;;15.20;99.90;;;;;;5038984;28;20048;-72
2023/06/08 07:33:33;;;;;;;11.70;6.18;;;15.20;99.90;;;;;;5049525;28;20056;-73
2023/06/08 07:35:58;;;;;;;14.80;6.30;;;15.30;99.90;;;;;;5043404;28;20139;-73
2023/06/08 07:38:24;;;;;;;9.85;6.25;;;15.30;99.90;;;;;;5043805;28;20042;-73
2023/06/08 07:40:49;;;;;;;11.57;6.40;;;15.50;99.90;;;;;;5042258;28;20045;-75
2023/06/08 07:43:15;;;;;;;15.05;6.55;;;15.40;99.90;;;;;;5048744;28;20075;-73
2023/06/08 07:45:41;;;;;;;16.27;6.72;;;15.50;99.90;;;;;;5048557;28;20045;-73
2023/06/08 07:48:07;;;;;;;14.95;5.90;;;15.40;99.90;;;;;;5041810;28;20045;-73
2023/06/08 07:50:32;;;;;;;12.02;6.15;;;15.40;99.90;;;;;;5046979;28;20049;-74
2023/06/08 07:52:58;;;;;;;17.45;6.65;;;15.40;99.90;;;;;;5051994;28;20041;-74
2023/06/08 07:55:23;;;;;;;12.32;6.45;;;15.50;99.90;;;;;;5035183;28;20056;-73
2023/06/08 07:57:50;;;;;;;15.57;6.70;;;15.80;99.90;;;;;;5041191;28;20095;-73
2023/06/08 08:00:16;;;;;;;10.85;5.80;;;15.60;99.90;;;;;;5034064;28;20037;-73
2023/06/08 08:02:43;;;;;;;14.23;5.70;;;15.50;99.90;;;;;;5043418;28;20077;-73
2023/06/08 08:05:09;;;;;;;13.43;6.60;;;15.70;99.90;;;;;;5029983;28;20556;-73
2023/06/08 08:07:36;;;;;;;13.75;5.53;;;15.70;99.90;;;;;;5035933;28;20056;-72
2023/06/08 08:10:03;;;;;;;12.10;5.47;;;15.60;99.90;;;;;;5034612;28;20045;-72
2023/06/08 08:12:28;;;;;;;11.95;5.57;;;15.70;99.90;;;;;;5032104;28;20508;-72
2023/06/08 08:14:54;;;;;;;9.88;5.15;;;15.80;99.90;;;;;;5047337;28;20041;-73
2023/06/08 08:17:20;;;;;;;12.52;5.53;;;15.80;99.90;;;;;;5035675;28;20041;-76
2023/06/08 08:19:45;;;;;;;9.02;5.50;;;15.90;99.90;;;;;;5059959;28;20128;-75
2023/06/08 08:22:11;;;;;;;9.45;5.38;;;15.90;99.90;;;;;;5035767;28;20037;-73
2023/06/08 08:24:37;;;;;;;13.73;5.63;;;15.90;99.90;;;;;;5031048;28;20401;-73
2023/06/08 08:27:02;;;;;;;14.38;6.45;;;16.00;99.90;;;;;;5036923;28;20041;-73
2023/06/08 08:29:28;;;;;;;9.77;4.85;;;15.90;99.90;;;;;;5039183;28;20506;-73
2023/06/08 08:31:55;;;;;;;12.77;5.97;;;15.90;99.90;;;;;;5042005;28;20566;-73
2023/06/08 08:34:20;;;;;;;12.50;4.90;;;16.10;99.90;;;;;;5033446;28;20053;-73
2023/06/08 08:36:46;;;;;;;10.73;5.10;;;16.00;99.90;;;;;;5044300;28;20041;-73
2023/06/08 08:39:14;;;;;;;9.25;4.97;;;16.00;99.90;;;;;;5035156;28;20046;-74
2023/06/08 08:41:41;;;;;;;15.10;5.15;;;16.00;99.90;;;;;;5033990;28;20041;-73
2023/06/08 08:44:08;;;;;;;11.13;5.40;;;16.10;99.90;;;;;;5031932;28;20052;-72
2023/06/08 08:46:37;;;;;;;14.90;5.10;;;16.00;99.90;;;;;;5036587;28;20077;-73
2023/06/08 08:49:08;;;;;;;10.25;5.05;;;16.00;99.90;;;;;;5037986;28;20041;-73
2023/06/08 08:51:38;;;;;;;17.83;5.50;;;16.20;99.90;;;;;;5029962;28;20539;-76
2023/06/08 08:54:04;;;;;;;11.63;5.15;;;16.10;99.90;;;;;;5029620;28;20045;-73
2023/06/08 08:56:36;;;;;;;12.07;5.10;;;16.20;99.90;;;;;;5036283;28;20094;-73
2023/06/08 08:59:04;;;;;;;13.45;5.13;;;16.20;99.90;;;;;;5034790;28;20077;-74
2023/06/08 09:01:32;;;;;;;12.65;5.13;;;16.30;99.90;;;;;;5042275;28;20095;-74
2023/06/08 09:03:59;;;;;;;11.10;5.28;;;16.40;99.90;;;;;;5053534;28;20040;-73
2023/06/08 09:06:25;;;;;;;12.77;5.25;;;16.40;99.90;;;;;;5038160;28;20045;-73
2023/06/08 09:08:51;;;;;;;8.60;4.50;;;16.40;99.90;;;;;;5034709;28;20045;-75
2023/06/08 09:11:17;;;;;;;14.23;5.25;;;16.50;99.90;;;;;;5050378;28;20090;-75
2023/06/08 09:13:43;;;;;;;11.85;5.22;;;16.40;99.90;;;;;;5048047;28;20048;-74
2023/06/08 09:16:14;;;;;;;12.15;5.05;;;16.50;99.90;;;;;;5037300;28;20060;-73
2023/06/08 09:18:41;;;;;;;17.95;5.53;;;16.60;99.90;;;;;;5041860;28;20053;-73
2023/06/08 09:21:27;;;;;;;11.68;5.15;;;16.60;99.90;;;;;;5043384;28;20045;-73
2023/06/08 09:24:22;;;;;;;10.13;5.53;;;16.60;99.90;;;;;;5043543;28;20122;-73
2023/06/08 09:26:49;;;;;;;9.63;5.53;;;16.60;99.90;;;;;;5047466;28;20063;-73
2023/06/08 09:29:44;;;;;;;12.05;5.35;;;16.60;99.90;;;;;;5048846;28;20060;-73
2023/06/08 09:32:16;;;;;;;13.40;5.68;;;16.70;99.90;;;;;;5040457;28;20060;-73
2023/06/08 09:35:09;;;;;;;8.73;5.60;;;16.70;99.90;;;;;;5047382;28;20186;-73
2023/06/08 09:37:41;;;;;;;15.45;5.35;;;16.70;99.90;;;;;;5040441;28;20107;-74
2023/06/08 09:40:08;;;;;;;11.60;5.80;;;16.90;99.90;;;;;;5044586;28;20071;-73
2023/06/08 09:42:53;;;;;;;8.73;4.38;;;17.00;99.90;;;;;;5035510;28;20397;-73
2023/06/08 09:45:20;;;;;;;13.77;5.40;;;16.80;99.90;;;;;;5045929;28;20060;-73
2023/06/08 09:47:47;;;;;;;11.77;5.07;;;16.90;99.90;;;;;;5042809;28;20037;-73
2023/06/08 09:50:13;;;;;;;25.63;5.60;;;16.90;99.90;;;;;;5046442;28;20052;-73
2023/06/08 09:52:40;;;;;;;8.85;4.88;;;17.00;99.90;;;;;;5049918;28;20049;-73
2023/06/08 09:55:06;;;;;;;9.35;4.40;;;17.10;99.90;;;;;;5047315;28;20388;-73
2023/06/08 09:57:36;;;;;;;12.07;4.80;;;17.10;99.90;;;;;;5044802;28;20087;-72
2023/06/08 10:00:14;;;;;;;10.60;4.75;;;17.20;99.90;;;;;;5044333;28;20049;-73
2023/06/08 10:03:03;;;;;;;10.05;4.35;;;17.20;99.90;;;;;;5044503;28;20053;-73
2023/06/08 10:05:33;;;;;;;15.90;5.53;;;17.30;99.90;;;;;;5033150;28;20111;-73
2023/06/08 10:07:59;;;;;;;18.25;4.97;;;17.30;99.90;;;;;;5041932;28;20121;-73
2023/06/08 10:10:36;;;;;;;10.55;4.43;;;;;;;;;;5031561;28;20049;-73
2023/06/08 10:13:02;;;;;;;8.43;4.45;;;17.40;99.90;;;;;;5043332;28;20106;-73
2023/06/08 10:15:28;;;;;;;10.32;4.68;;;17.50;99.90;;;;;;5045011;28;20052;-73
2023/06/08 10:17:55;;;;;;;11.82;5.38;;;17.60;99.90;;;;;;5045454;28;20033;-72
2023/06/08 10:20:21;;;;;;;10.88;4.65;;;17.60;99.90;;;;;;5031067;28;20044;-73
2023/06/08 10:22:47;;;;;;;9.18;4.95;;;17.60;99.90;;;;;;5043607;28;20037;-74
2023/06/08 10:25:16;;;;;;;15.55;4.45;;;17.80;99.90;;;;;;5043060;28;20554;-73
2023/06/08 10:27:49;;;;;;;8.63;4.32;;;17.80;99.90;;;;;;5036800;28;20045;-73
2023/06/08 10:30:39;;;;;;;10.15;4.70;;;17.80;99.90;;;;;;5050088;28;20037;-73
2023/06/08 10:33:10;;;;;;;7.13;4.43;;;18.00;99.90;;;;;;5043223;28;20040;-73
2023/06/08 10:35:36;;;;;;;10.90;4.70;;;18.00;99.90;;;;;;5048131;28;20045;-73
2023/06/08 10:38:13;;;;;;;6.30;4.00;;;18.00;99.90;;;;;;5045024;28;20362;-72
2023/06/08 10:40:43;;;;;;;12.13;4.72;;;18.00;99.90;;;;;;5038809;28;20124;-72
2023/06/08 10:43:09;;;;;;;11.52;4.80;;;18.00;99.90;;;;;;5038245;28;20045;-72
2023/06/08 10:45:43;;;;;;;8.13;4.57;;;18.00;99.90;;;;;;5031012;28;20631;-73
2023/06/08 10:48:19;;;;;;;10.13;5.25;;;18.10;99.90;;;;;;5045076;28;20044;-74
2023/06/08 10:50:54;;;;;;;10.45;4.50;;;18.20;99.90;;;;;;5058297;28;20041;-74
2023/06/08 10:53:38;;;;;;;8.88;4.47;;;18.20;99.90;;;;;;5035488;28;21220;-74
2023/06/08 10:56:04;;;;;;;10.27;4.88;;;18.10;99.90;;;;;;5042577;28;20045;-74
2023/06/08 10:58:51;;;;;;;10.38;4.07;;;18.20;99.90;;;;;;5043451;28;20048;-74
2023/06/08 11:01:19;;;;;;;8.77;4.28;;;18.30;99.90;;;;;;5026789;28;20040;-73
2023/06/08 11:03:49;;;;;;;9.48;4.25;;;18.30;99.90;;;;;;5043158;28;20045;-74
2023/06/08 11:06:15;;;;;;;8.32;4.30;;;18.40;99.90;;;;;;5038632;28;20066;-74
2023/06/08 11:08:41;;;;;;;12.57;4.22;;;18.50;99.90;;;;;;5041534;28;20380;-73
2023/06/08 11:11:10;;;;;;;10.15;4.47;;;18.60;99.90;;;;;;5046370;28;20043;-73
2023/06/08 11:13:37;;;;;;;11.38;4.20;;;18.60;99.90;;;;;;5037899;28;20209;-74
2023/06/08 11:16:02;;;;;;;9.73;3.92;;;18.70;99.90;;;;;;5032062;28;20050;-73
2023/06/08 11:18:30;;;;;;;9.02;4.10;;;18.80;99.90;;;;;;5044069;28;20405;-73
2023/06/08 11:20:58;;;;;;;9.13;4.40;;;18.80;99.90;;;;;;5035801;28;20067;-74
2023/06/08 11:23:25;;;;;;;10.40;3.70;;;18.90;99.90;;;;;;5041550;28;20056;-73
2023/06/08 11:25:51;;;;;;;11.05;4.90;;;18.90;99.90;;;;;;5048498;28;20041;-73
2023/06/08 11:28:17;;;;;;;9.50;3.83;;;18.90;99.90;;;;;;5040623;28;20366;-74
2023/06/08 11:30:42;;;;;;;9.35;3.90;;;18.90;99.90;;;;;;5041505;28;20102;-73
2023/06/08 11:33:14;;;;;;;8.90;4.03;;;19.00;99.90;;;;;;5039133;28;20139;-73
2023/06/08 11:35:40;;;;;;;8.10;3.85;;;19.00;99.90;;;;;;5038603;28;20106;-73
2023/06/08 11:38:06;;;;;;;7.57;3.47;;;19.10;99.90;;;;;;5040818;28;20076;-74
2023/06/08 11:40:34;;;;;;;10.95;4.45;;;19.10;99.90;;;;;;5037544;28;20041;-73
2023/06/08 11:43:00;;;;;;;9.43;3.78;;;19.20;99.90;;;;;;5046185;28;20045;-74
2023/06/08 11:45:26;;;;;;;8.50;4.38;;;19.20;99.90;;;;;;5035091;28;20154;-73
2023/06/08 11:47:57;;;;;;;9.52;4.03;;;19.20;99.90;;;;;;5035841;28;20041;-73
2023/06/08 11:50:23;;;;;;;8.48;3.80;;;19.20;99.90;;;;;;5041329;28;20059;-73
2023/06/08 11:52:49;;;;;;;11.73;4.15;;;19.30;99.90;;;;;;5043082;28;20037;-74
2023/06/08 11:55:18;;;;;;;9.88;4.10;;;19.40;99.90;;;;;;5038432;28;20037;-73
2023/06/08 11:57:59;;;;;;;9.20;3.92;;;19.50;99.90;;;;;;5041836;28;20049;-73
2023/06/08 12:00:31;;;;;;;12.02;4.07;;;19.50;99.90;;;;;;5041361;28;20049;-74
2023/06/08 12:02:58;;;;;;;8.85;3.78;;;19.60;99.90;;;;;;5041423;28;20399;-74
2023/06/08 12:05:26;;;;;;;9.40;3.92;;;19.60;99.90;;;;;;5034328;28;20053;-73
2023/06/08 12:07:59;;;;;;;9.45;4.25;;;19.60;99.90;;;;;;5046927;28;20036;-73
2023/06/08 12:10:31;;;;;;;20.27;5.28;;;;;;;;;;5037500;28;20404;-71
2023/06/08 12:12:57;;;;;;;6.53;3.45;;;;;;;;;;5039582;28;20060;-71
2023/06/08 12:15:23;;;;;;;19.20;4.20;;;19.90;99.90;;;;;;5038196;28;20053;-71
2023/06/08 12:17:49;;;;;;;7.43;3.50;;;20.00;99.90;;;;;;5041569;28;20408;-71
2023/06/08 12:20:16;;;;;;;7.38;3.67;;;20.00;99.90;;;;;;5039485;28;20489;-72
2023/06/08 12:22:41;;;;;;;6.75;3.70;;;20.10;99.90;;;;;;5042137;28;20041;-72
2023/06/08 12:25:07;;;;;;;11.82;3.70;;;20.20;99.90;;;;;;5038110;28;20084;-71
2023/06/08 12:27:37;;;;;;;6.45;3.35;;;20.20;99.90;;;;;;5039471;28;20124;-71
2023/06/08 12:30:06;;;;;;;8.45;3.85;;;;;;;;;;5041052;28;20519;-71
2023/06/08 12:32:32;;;;;;;7.90;3.53;;;;;;;;;;5036194;28;20056;-72
2023/06/08 12:35:01;;;;;;;9.38;4.07;;;;;;;;;;5035904;28;20045;-72
2023/06/08 12:37:29;;;;;;;15.52;4.10;;;;;;;;;;5046800;28;20045;-72
2023/06/08 12:39:55;;;;;;;8.93;3.63;;;;;;;;;;5038694;28;20057;-71
2023/06/08 12:42:21;;;;;;;9.40;4.15;;;;;;;;;;5036453;28;20053;-72
2023/06/08 12:44:47;;;;;;;13.70;4.00;;;;;;;;;;5049498;28;20060;-71
2023/06/08 12:47:14;;;;;;;5.32;3.50;;;;;;;;;;5044495;28;20033;-72
2023/06/08 12:49:43;;;;;;;16.88;4.40;;;;;;;;;;5043637;28;20522;-71
2023/06/08 12:52:10;;;;;;;6.07;3.60;;;;;;;;;;5041723;28;20527;-72
2023/06/08 12:54:36;;;;;;;11.32;3.85;;;;;;;;;;5041908;28;20396;-72
2023/06/08 12:57:02;;;;;;;11.35;3.85;;;;;;;;;;5041668;28;20040;-71
2023/06/08 12:59:29;;;;;;;10.13;3.55;;;;;;;;;;5044548;28;20170;-72
2023/06/08 13:01:56;;;;;;;6.00;3.63;;;;;;;;;;5043556;28;20049;-72
2023/06/08 13:04:22;;;;;;;7.55;3.80;;;;;;;;;;5039494;28;20064;-71